sensor_id;sensor_type;location;lat;lon;timestamp;pressure;altitude;pressure_sealevel;temperature;humidity
19108;BME280;9686;48.832;9.126;2023-04-07T00:02:12;98181.75;;;8.42;nan
19108;BME280;9686;48.832;9.126;2023-04-07T00:04:37;98184.34;;;8.43;nan
19108;BME280;9686;48.832;9.126;2023-04-07T00:07:02;98183.47;;;8.44;nan
19108;BME280;9686;48.832;9.126;2023-04-07T00:09:28;98173.97;;;8.61;nan
19108;BME280;9686;48.832;9.126;2023-04-07T00:11:53;98175.72;;;8.62;nan
19108;BME280;9686;48.832;9.126;2023-04-07T00:14:18;98170.50;;;8.55;nan
19108;BME280;9686;48.832;9.126;2023-04-07T00:16:44;98172.22;;;8.45;nan
19108;BME280;9686;48.832;9.126;2023-04-07T00:19:09;98175.69;;;8.50;nan
19108;BME280;9686;48.832;9.126;2023-04-07T00:21:34;98171.34;;;8.54;nan
19108;BME280;9686;48.832;9.126;2023-04-07T00:23:59;98169.63;;;8.48;nan
19108;BME280;9686;48.832;9.126;2023-04-07T00:26:25;98167.03;;;8.53;nan
19108;BME280;9686;48.832;9.126;2023-04-07T00:28:56;98160.09;;;8.52;nan
19108;BME280;9686;48.832;9.126;2023-04-07T00:31:22;98158.38;;;8.49;nan
19108;BME280;9686;48.832;9.126;2023-04-07T00:33:47;98151.44;;;8.42;nan
19108;BME280;9686;48.832;9.126;2023-04-07T00:36:13;98154.91;;;8.41;nan
19108;BME280;9686;48.832;9.126;2023-04-07T00:38:39;98150.56;;;8.39;nan
19108;BME280;9686;48.832;9.126;2023-04-07T00:41:04;98146.25;;;8.39;nan
19108;BME280;9686;48.832;9.126;2023-04-07T00:43:30;98145.38;;;8.36;nan
19108;BME280;9686;48.832;9.126;2023-04-07T00:45:55;98141.91;;;8.37;nan
19108;BME280;9686;48.832;9.126;2023-04-07T00:48:21;98147.09;;;8.38;nan
19108;BME280;9686;48.832;9.126;2023-04-07T00:50:46;98141.03;;;8.36;nan
19108;BME280;9686;48.832;9.126;2023-04-07T00:53:12;98132.38;;;8.40;nan
19108;BME280;9686;48.832;9.126;2023-04-07T00:55:37;98138.44;;;8.45;nan
19108;BME280;9686;48.832;9.126;2023-04-07T00:58:03;98125.47;;;8.45;nan
19108;BME280;9686;48.832;9.126;2023-04-07T01:00:39;98126.31;;;8.47;nan
19108;BME280;9686;48.832;9.126;2023-04-07T01:03:13;98119.41;;;8.36;nan
19108;BME280;9686;48.832;9.126;2023-04-07T01:05:47;98116.75;;;8.32;nan
19108;BME280;9686;48.832;9.126;2023-04-07T01:08:28;98118.53;;;8.52;nan
19108;BME280;9686;48.832;9.126;2023-04-07T01:13:45;98111.59;;;8.51;nan
19108;BME280;9686;48.832;9.126;2023-04-07T01:16:18;98111.59;;;8.43;nan
19108;BME280;9686;48.832;9.126;2023-04-07T01:18:50;98101.22;;;8.37;nan
19108;BME280;9686;48.832;9.126;2023-04-07T01:21:17;98102.94;;;8.41;nan
19108;BME280;9686;48.832;9.126;2023-04-07T01:24:45;98095.16;;;8.41;nan
19108;BME280;9686;48.832;9.126;2023-04-07T01:26:50;98089.03;;;8.31;nan
19108;BME280;9686;48.832;9.126;2023-04-07T01:29:36;98097.69;;;8.17;nan
19108;BME280;9686;48.832;9.126;2023-04-07T01:32:05;98092.50;;;8.09;nan
19108;BME280;9686;48.832;9.126;2023-04-07T01:34:33;98096.81;;;8.19;nan
19108;BME280;9686;48.832;9.126;2023-04-07T01:37:00;98084.72;;;8.09;nan
19108;BME280;9686;48.832;9.126;2023-04-07T01:39:26;98091.63;;;8.13;nan
19108;BME280;9686;48.832;9.126;2023-04-07T01:41:53;98085.56;;;8.20;nan
19108;BME280;9686;48.832;9.126;2023-04-07T01:44:19;98087.31;;;8.15;nan
19108;BME280;9686;48.832;9.126;2023-04-07T01:46:46;98076.94;;;8.17;nan
19108;BME280;9686;48.832;9.126;2023-04-07T01:49:12;98080.38;;;8.22;nan
19108;BME280;9686;48.832;9.126;2023-04-07T01:51:39;98073.47;;;8.18;nan
19108;BME280;9686;48.832;9.126;2023-04-07T01:54:05;98067.41;;;8.17;nan
19108;BME280;9686;48.832;9.126;2023-04-07T01:56:32;98065.66;;;8.22;nan
19108;BME280;9686;48.832;9.126;2023-04-07T01:58:57;98072.59;;;8.28;nan
19108;BME280;9686;48.832;9.126;2023-04-07T02:01:22;98068.25;;;8.27;nan
19108;BME280;9686;48.832;9.126;2023-04-07T02:03:53;98067.41;;;8.26;nan
19108;BME280;9686;48.832;9.126;2023-04-07T02:06:22;98066.53;;;8.27;nan
19108;BME280;9686;48.832;9.126;2023-04-07T02:08:54;98064.81;;;8.22;nan
19108;BME280;9686;48.832;9.126;2023-04-07T02:11:22;98068.28;;;8.22;nan
19108;BME280;9686;48.832;9.126;2023-04-07T02:13:51;98061.41;;;8.38;nan
19108;BME280;9686;48.832;9.126;2023-04-07T02:16:17;98065.66;;;8.31;nan
19108;BME280;9686;48.832;9.126;2023-04-07T02:18:45;98063.06;;;8.24;nan
19108;BME280;9686;48.832;9.126;2023-04-07T02:21:13;98055.28;;;8.21;nan
19108;BME280;9686;48.832;9.126;2023-04-07T02:23:39;98054.41;;;8.29;nan
19108;BME280;9686;48.832;9.126;2023-04-07T02:26:05;98064.81;;;8.32;nan
19108;BME280;9686;48.832;9.126;2023-04-07T02:28:30;98047.53;;;8.41;nan
19108;BME280;9686;48.832;9.126;2023-04-07T02:30:55;98047.50;;;8.30;nan
19108;BME280;9686;48.832;9.126;2023-04-07T02:33:21;98050.97;;;8.20;nan
19108;BME280;9686;48.832;9.126;2023-04-07T02:35:46;98054.44;;;8.08;nan
19108;BME280;9686;48.832;9.126;2023-04-07T02:38:11;98042.28;;;8.01;nan
19108;BME280;9686;48.832;9.126;2023-04-07T02:40:36;98044.03;;;8.19;nan
19108;BME280;9686;48.832;9.126;2023-04-07T02:43:02;98043.16;;;8.29;nan
19108;BME280;9686;48.832;9.126;2023-04-07T02:45:29;98039.72;;;8.19;nan
19108;BME280;9686;48.832;9.126;2023-04-07T02:47:55;98038.84;;;8.23;nan
19108;BME280;9686;48.832;9.126;2023-04-07T02:50:20;98038.84;;;8.19;nan
19108;BME280;9686;48.832;9.126;2023-04-07T02:52:45;98029.38;;;8.34;nan
19108;BME280;9686;48.832;9.126;2023-04-07T02:55:11;98028.44;;;8.25;nan
19108;BME280;9686;48.832;9.126;2023-04-07T02:57:36;98031.94;;;8.33;nan
19108;BME280;9686;48.832;9.126;2023-04-07T03:00:01;98029.31;;;8.31;nan
19108;BME280;9686;48.832;9.126;2023-04-07T03:02:27;98026.78;;;8.34;nan
19108;BME280;9686;48.832;9.126;2023-04-07T03:04:52;98019.78;;;8.32;nan
19108;BME280;9686;48.832;9.126;2023-04-07T03:07:18;98024.13;;;8.28;nan
19108;BME280;9686;48.832;9.126;2023-04-07T03:09:43;98026.78;;;8.36;nan
19108;BME280;9686;48.832;9.126;2023-04-07T03:12:10;98030.22;;;8.44;nan
19108;BME280;9686;48.832;9.126;2023-04-07T03:14:35;98014.66;;;8.37;nan
19108;BME280;9686;48.832;9.126;2023-04-07T03:17:02;98019.84;;;8.41;nan
19108;BME280;9686;48.832;9.126;2023-04-07T03:19:27;98017.25;;;8.35;nan
19108;BME280;9686;48.832;9.126;2023-04-07T03:21:52;98010.31;;;8.42;nan
19108;BME280;9686;48.832;9.126;2023-04-07T03:24:18;98012.06;;;8.40;nan
19108;BME280;9686;48.832;9.126;2023-04-07T03:26:43;98010.31;;;8.39;nan
19108;BME280;9686;48.832;9.126;2023-04-07T03:29:08;98004.25;;;8.41;nan
19108;BME280;9686;48.832;9.126;2023-04-07T03:31:34;98006.84;;;8.43;nan
19108;BME280;9686;48.832;9.126;2023-04-07T03:34:01;98005.97;;;8.44;nan
19108;BME280;9686;48.832;9.126;2023-04-07T03:36:26;98004.25;;;8.47;nan
19108;BME280;9686;48.832;9.126;2023-04-07T03:38:52;98007.69;;;8.48;nan
19108;BME280;9686;48.832;9.126;2023-04-07T03:41:17;97999.06;;;8.43;nan
19108;BME280;9686;48.832;9.126;2023-04-07T03:43:43;97999.91;;;8.43;nan
19108;BME280;9686;48.832;9.126;2023-04-07T03:46:09;97999.03;;;8.52;nan
19108;BME280;9686;48.832;9.126;2023-04-07T03:48:34;97997.31;;;8.45;nan
19108;BME280;9686;48.832;9.126;2023-04-07T03:50:59;97999.91;;;8.45;nan
19108;BME280;9686;48.832;9.126;2023-04-07T03:53:25;97998.19;;;8.44;nan
19108;BME280;9686;48.832;9.126;2023-04-07T03:55:51;97994.72;;;8.43;nan
19108;BME280;9686;48.832;9.126;2023-04-07T03:58:16;97993.00;;;8.42;nan
19108;BME280;9686;48.832;9.126;2023-04-07T04:00:42;97990.41;;;8.44;nan
19108;BME280;9686;48.832;9.126;2023-04-07T04:03:07;97983.47;;;8.47;nan
19108;BME280;9686;48.832;9.126;2023-04-07T04:05:32;97986.91;;;8.55;nan
19108;BME280;9686;48.832;9.126;2023-04-07T04:07:58;97988.66;;;8.44;nan
19108;BME280;9686;48.832;9.126;2023-04-07T04:10:23;97992.09;;;8.52;nan
19108;BME280;9686;48.832;9.126;2023-04-07T04:12:48;97985.19;;;8.51;nan
19108;BME280;9686;48.832;9.126;2023-04-07T04:15:14;97984.28;;;8.58;nan
19108;BME280;9686;48.832;9.126;2023-04-07T04:17:40;97980.88;;;8.59;nan
19108;BME280;9686;48.832;9.126;2023-04-07T04:20:06;97986.03;;;8.58;nan
19108;BME280;9686;48.832;9.126;2023-04-07T04:22:32;97972.22;;;8.39;nan
19108;BME280;9686;48.832;9.126;2023-04-07T04:24:58;97969.59;;;8.48;nan
19108;BME280;9686;48.832;9.126;2023-04-07T04:27:23;97974.78;;;8.53;nan
19108;BME280;9686;48.832;9.126;2023-04-07T04:29:48;97974.81;;;8.47;nan
19108;BME280;9686;48.832;9.126;2023-04-07T04:32:13;97969.63;;;8.41;nan
19108;BME280;9686;48.832;9.126;2023-04-07T04:34:39;97974.81;;;8.45;nan
19108;BME280;9686;48.832;9.126;2023-04-07T04:37:06;97971.38;;;8.39;nan
19108;BME280;9686;48.832;9.126;2023-04-07T04:39:31;97982.56;;;8.28;nan
19108;BME280;9686;48.832;9.126;2023-04-07T04:41:57;97971.31;;;8.31;nan
19108;BME280;9686;48.832;9.126;2023-04-07T04:44:22;97979.16;;;8.34;nan
19108;BME280;9686;48.832;9.126;2023-04-07T04:46:47;97986.06;;;8.43;nan
19108;BME280;9686;48.832;9.126;2023-04-07T04:49:13;97979.97;;;8.27;nan
19108;BME280;9686;48.832;9.126;2023-04-07T04:51:39;97981.75;;;8.37;nan
19108;BME280;9686;48.832;9.126;2023-04-07T04:54:05;97981.75;;;8.37;nan
19108;BME280;9686;48.832;9.126;2023-04-07T04:56:30;97985.22;;;8.39;nan
19108;BME280;9686;48.832;9.126;2023-04-07T04:58:56;97986.03;;;8.23;nan
19108;BME280;9686;48.832;9.126;2023-04-07T05:01:21;97986.91;;;8.25;nan
19108;BME280;9686;48.832;9.126;2023-04-07T05:03:46;97981.72;;;8.28;nan
19108;BME280;9686;48.832;9.126;2023-04-07T05:06:12;97995.56;;;8.27;nan
19108;BME280;9686;48.832;9.126;2023-04-07T05:08:37;97990.38;;;8.25;nan
19108;BME280;9686;48.832;9.126;2023-04-07T05:11:02;97992.97;;;8.27;nan
19108;BME280;9686;48.832;9.126;2023-04-07T05:13:27;97988.69;;;8.35;nan
19108;BME280;9686;48.832;9.126;2023-04-07T05:15:55;97997.28;;;8.31;nan
19108;BME280;9686;48.832;9.126;2023-04-07T05:18:20;97985.16;;;8.30;nan
19108;BME280;9686;48.832;9.126;2023-04-07T05:20:47;97989.50;;;8.32;nan
19108;BME280;9686;48.832;9.126;2023-04-07T05:23:13;97992.09;;;8.19;nan
19108;BME280;9686;48.832;9.126;2023-04-07T05:25:38;97996.44;;;8.23;nan
19108;BME280;9686;48.832;9.126;2023-04-07T05:28:04;97993.81;;;8.27;nan
19108;BME280;9686;48.832;9.126;2023-04-07T05:30:30;97991.25;;;8.21;nan
19108;BME280;9686;48.832;9.126;2023-04-07T05:32:55;97993.00;;;8.34;nan
19108;BME280;9686;48.832;9.126;2023-04-07T05:35:21;98000.75;;;8.27;nan
19108;BME280;9686;48.832;9.126;2023-04-07T05:37:46;97999.00;;;8.32;nan
19108;BME280;9686;48.832;9.126;2023-04-07T05:40:11;97986.97;;;8.34;nan
19108;BME280;9686;48.832;9.126;2023-04-07T05:42:37;97991.28;;;8.35;nan
19108;BME280;9686;48.832;9.126;2023-04-07T05:45:03;97991.28;;;8.43;nan
19108;BME280;9686;48.832;9.126;2023-04-07T05:47:28;97986.06;;;8.46;nan
19108;BME280;9686;48.832;9.126;2023-04-07T05:49:54;97982.59;;;8.50;nan
19108;BME280;9686;48.832;9.126;2023-04-07T05:52:19;97992.13;;;8.40;nan
19108;BME280;9686;48.832;9.126;2023-04-07T05:54:45;97990.41;;;8.38;nan
19108;BME280;9686;48.832;9.126;2023-04-07T05:57:10;97990.41;;;8.44;nan
19108;BME280;9686;48.832;9.126;2023-04-07T05:59:36;97990.41;;;8.44;nan
19108;BME280;9686;48.832;9.126;2023-04-07T06:02:02;97983.47;;;8.47;nan
19108;BME280;9686;48.832;9.126;2023-04-07T06:04:27;97991.25;;;8.49;nan
19108;BME280;9686;48.832;9.126;2023-04-07T06:06:52;97990.38;;;8.48;nan
19108;BME280;9686;48.832;9.126;2023-04-07T06:09:20;97989.50;;;8.54;nan
19108;BME280;9686;48.832;9.126;2023-04-07T06:11:45;97987.78;;;8.54;nan
19108;BME280;9686;48.832;9.126;2023-04-07T06:14:11;97982.59;;;8.59;nan
19108;BME280;9686;48.832;9.126;2023-04-07T06:16:36;97992.94;;;8.76;nan
19108;BME280;9686;48.832;9.126;2023-04-07T06:19:02;97987.72;;;8.88;nan
19108;BME280;9686;48.832;9.126;2023-04-07T06:21:27;97996.38;;;8.85;nan
19108;BME280;9686;48.832;9.126;2023-04-07T06:23:53;97991.19;;;8.81;nan
19108;BME280;9686;48.832;9.126;2023-04-07T06:26:18;97995.53;;;8.77;nan
19108;BME280;9686;48.832;9.126;2023-04-07T06:28:43;97996.38;;;8.84;nan
19108;BME280;9686;48.832;9.126;2023-04-07T06:31:09;97999.84;;;8.84;nan
19108;BME280;9686;48.832;9.126;2023-04-07T06:33:35;97995.47;;;8.99;nan
19108;BME280;9686;48.832;9.126;2023-04-07T06:36:00;98000.66;;;9.02;nan
19108;BME280;9686;48.832;9.126;2023-04-07T06:38:26;97998.03;;;9.03;nan
19108;BME280;9686;48.832;9.126;2023-04-07T06:40:51;97998.03;;;9.03;nan
19108;BME280;9686;48.832;9.126;2023-04-07T06:43:16;97998.03;;;9.15;nan
19108;BME280;9686;48.832;9.126;2023-04-07T06:45:42;97996.28;;;9.16;nan
19108;BME280;9686;48.832;9.126;2023-04-07T06:48:07;97987.56;;;9.24;nan
19108;BME280;9686;48.832;9.126;2023-04-07T06:50:35;97997.16;;;9.13;nan
19108;BME280;9686;48.832;9.126;2023-04-07T06:53:01;97991.09;;;9.05;nan
19108;BME280;9686;48.832;9.126;2023-04-07T06:55:26;97988.50;;;9.08;nan
19108;BME280;9686;48.832;9.126;2023-04-07T06:57:51;97986.78;;;9.03;nan
19108;BME280;9686;48.832;9.126;2023-04-07T07:00:17;97986.78;;;9.04;nan
19108;BME280;9686;48.832;9.126;2023-04-07T07:02:43;97986.78;;;9.03;nan
19108;BME280;9686;48.832;9.126;2023-04-07T07:05:08;97983.38;;;8.88;nan
19108;BME280;9686;48.832;9.126;2023-04-07T07:07:35;97988.50;;;9.07;nan
19108;BME280;9686;48.832;9.126;2023-04-07T07:10:01;97988.50;;;9.14;nan
19108;BME280;9686;48.832;9.126;2023-04-07T07:12:26;97990.22;;;9.08;nan
19108;BME280;9686;48.832;9.126;2023-04-07T07:14:51;97990.25;;;9.02;nan
19108;BME280;9686;48.832;9.126;2023-04-07T07:17:16;97989.41;;;9.00;nan
19108;BME280;9686;48.832;9.126;2023-04-07T07:19:42;97982.47;;;9.02;nan
19108;BME280;9686;48.832;9.126;2023-04-07T07:22:07;97985.06;;;9.03;nan
19108;BME280;9686;48.832;9.126;2023-04-07T07:24:32;97984.22;;;8.95;nan
19108;BME280;9686;48.832;9.126;2023-04-07T07:26:59;97988.56;;;8.91;nan
19108;BME280;9686;48.832;9.126;2023-04-07T07:29:24;97980.69;;;9.07;nan
19108;BME280;9686;48.832;9.126;2023-04-07T07:31:50;97985.03;;;9.11;nan
19108;BME280;9686;48.832;9.126;2023-04-07T07:34:15;97996.31;;;9.11;nan
19108;BME280;9686;48.832;9.126;2023-04-07T07:36:40;97999.66;;;9.32;nan
19108;BME280;9686;48.832;9.126;2023-04-07T07:39:06;97997.00;;;9.45;nan
19108;BME280;9686;48.832;9.126;2023-04-07T07:41:31;97998.75;;;9.43;nan
19108;BME280;9686;48.832;9.126;2023-04-07T07:43:56;97994.44;;;9.42;nan
19108;BME280;9686;48.832;9.126;2023-04-07T07:46:22;97997.84;;;9.49;nan
19108;BME280;9686;48.832;9.126;2023-04-07T07:48:50;97995.19;;;9.61;nan
19108;BME280;9686;48.832;9.126;2023-04-07T07:51:15;97993.34;;;9.80;nan
19108;BME280;9686;48.832;9.126;2023-04-07T07:53:40;97997.59;;;9.88;nan
19108;BME280;9686;48.832;9.126;2023-04-07T07:56:05;97986.16;;;10.11;nan
19108;BME280;9686;48.832;9.126;2023-04-07T07:58:31;97987.72;;;10.38;nan
19108;BME280;9686;48.832;9.126;2023-04-07T08:00:56;97988.50;;;10.49;nan
19108;BME280;9686;48.832;9.126;2023-04-07T08:03:21;97985.91;;;10.46;nan
19108;BME280;9686;48.832;9.126;2023-04-07T08:05:47;97986.72;;;10.51;nan
19108;BME280;9686;48.832;9.126;2023-04-07T08:08:13;97983.19;;;10.57;nan
19108;BME280;9686;48.832;9.126;2023-04-07T08:10:38;97990.19;;;10.52;nan
19108;BME280;9686;48.832;9.126;2023-04-07T08:13:04;97995.44;;;10.48;nan
19108;BME280;9686;48.832;9.126;2023-04-07T08:15:29;97989.34;;;10.51;nan
19108;BME280;9686;48.832;9.126;2023-04-07T08:17:54;97997.03;;;10.62;nan
19108;BME280;9686;48.832;9.126;2023-04-07T08:20:20;97994.59;;;10.48;nan
19108;BME280;9686;48.832;9.126;2023-04-07T08:22:45;97996.16;;;10.64;nan
19108;BME280;9686;48.832;9.126;2023-04-07T08:25:11;98001.28;;;10.75;nan
19108;BME280;9686;48.832;9.126;2023-04-07T08:27:36;98002.97;;;10.77;nan
19108;BME280;9686;48.832;9.126;2023-04-07T08:30:04;98001.91;;;10.97;nan
19108;BME280;9686;48.832;9.126;2023-04-07T08:35:00;98011.59;;;11.58;nan
19108;BME280;9686;48.832;9.126;2023-04-07T08:37:26;98004.53;;;11.66;nan
19108;BME280;9686;48.832;9.126;2023-04-07T08:39:51;98004.38;;;11.77;nan
19108;BME280;9686;48.832;9.126;2023-04-07T08:42:18;97998.97;;;11.92;nan
19108;BME280;9686;48.832;9.126;2023-04-07T08:44:44;98007.59;;;11.98;nan
19108;BME280;9686;48.832;9.126;2023-04-07T08:47:12;98007.59;;;11.97;nan
19108;BME280;9686;48.832;9.126;2023-04-07T08:49:43;98012.81;;;11.97;nan
19108;BME280;9686;48.832;9.126;2023-04-07T08:52:10;98008.44;;;12.00;nan
19108;BME280;9686;48.832;9.126;2023-04-07T08:54:39;98002.13;;;12.14;nan
19108;BME280;9686;48.832;9.126;2023-04-07T08:57:04;97998.47;;;12.25;nan
19108;BME280;9686;48.832;9.126;2023-04-07T08:59:32;97995.72;;;12.33;nan
19108;BME280;9686;48.832;9.126;2023-04-07T09:01:59;97992.81;;;12.50;nan
19108;BME280;9686;48.832;9.126;2023-04-07T09:04:25;98002.78;;;12.79;nan
19108;BME280;9686;48.832;9.126;2023-04-07T09:06:51;97995.94;;;12.70;nan
19108;BME280;9686;48.832;9.126;2023-04-07T09:09:17;97997.09;;;12.54;nan
19108;BME280;9686;48.832;9.126;2023-04-07T09:11:42;98001.06;;;12.25;nan
19108;BME280;9686;48.832;9.126;2023-04-07T09:14:07;98008.94;;;12.22;nan
19108;BME280;9686;48.832;9.126;2023-04-07T09:16:33;98006.06;;;12.39;nan
19108;BME280;9686;48.832;9.126;2023-04-07T09:18:59;98005.66;;;12.10;nan
19108;BME280;9686;48.832;9.126;2023-04-07T09:21:24;98011.97;;;12.49;nan
19108;BME280;9686;48.832;9.126;2023-04-07T09:23:51;98009.78;;;12.77;nan
19108;BME280;9686;48.832;9.126;2023-04-07T09:28:43;98005.69;;;12.62;nan
19108;BME280;9686;48.832;9.126;2023-04-07T09:31:09;98007.03;;;12.84;nan
19108;BME280;9686;48.832;9.126;2023-04-07T09:33:34;98004.00;;;13.06;nan
19108;BME280;9686;48.832;9.126;2023-04-07T09:36:01;98000.53;;;13.05;nan
19108;BME280;9686;48.832;9.126;2023-04-07T09:38:37;97995.16;;;13.11;nan
19108;BME280;9686;48.832;9.126;2023-04-07T09:41:13;98005.03;;;12.97;nan
19108;BME280;9686;48.832;9.126;2023-04-07T09:43:41;98011.06;;;13.01;nan
19108;BME280;9686;48.832;9.126;2023-04-07T09:46:13;98013.44;;;13.14;nan
19108;BME280;9686;48.832;9.126;2023-04-07T09:48:40;98008.69;;;13.35;nan
19108;BME280;9686;48.832;9.126;2023-04-07T09:51:14;98006.41;;;13.18;100.00
19108;BME280;9686;48.832;9.126;2023-04-07T09:53:50;98013.59;;;13.07;100.00
19108;BME280;9686;48.832;9.126;2023-04-07T09:56:18;98008.69;;;12.88;100.00
19108;BME280;9686;48.832;9.126;2023-04-07T09:58:45;98005.00;;;12.98;100.00
19108;BME280;9686;48.832;9.126;2023-04-07T10:01:12;98006.81;;;12.95;100.00
19108;BME280;9686;48.832;9.126;2023-04-07T10:03:38;98008.19;;;13.14;100.00
19108;BME280;9686;48.832;9.126;2023-04-07T10:06:04;98008.28;;;13.53;100.00
19108;BME280;9686;48.832;9.126;2023-04-07T10:08:34;98000.00;;;13.73;100.00
19108;BME280;9686;48.832;9.126;2023-04-07T10:11:00;97997.16;;;14.20;100.00
19108;BME280;9686;48.832;9.126;2023-04-07T10:13:30;97997.38;;;14.13;100.00
19108;BME280;9686;48.832;9.126;2023-04-07T10:15:57;98002.03;;;13.99;100.00
19108;BME280;9686;48.832;9.126;2023-04-07T10:18:28;97995.19;;;13.93;100.00
19108;BME280;9686;48.832;9.126;2023-04-07T10:21:01;97999.38;;;14.00;95.61
19108;BME280;9686;48.832;9.126;2023-04-07T10:25:57;97992.13;;;14.13;100.00
19108;BME280;9686;48.832;9.126;2023-04-07T10:28:24;97987.84;;;14.09;97.22
19108;BME280;9686;48.832;9.126;2023-04-07T10:30:51;97989.19;;;14.25;100.00
19108;BME280;9686;48.832;9.126;2023-04-07T10:33:50;97991.81;;;14.62;92.68
19108;BME280;9686;48.832;9.126;2023-04-07T10:36:17;97989.28;;;14.59;97.18
19108;BME280;9686;48.832;9.126;2023-04-07T10:41:35;97985.63;;;14.28;90.70
19108;BME280;9686;48.832;9.126;2023-04-07T10:44:02;97985.97;;;14.14;92.58
19108;BME280;9686;48.832;9.126;2023-04-07T10:49:16;97996.31;;;13.83;96.28
19108;BME280;9686;48.832;9.126;2023-04-07T10:51:42;98001.13;;;13.63;95.81
19108;BME280;9686;48.832;9.126;2023-04-07T10:54:20;98003.28;;;13.42;99.18
19108;BME280;9686;48.832;9.126;2023-04-07T10:59:30;97997.91;;;13.05;100.00
19108;BME280;9686;48.832;9.126;2023-04-07T11:04:37;98002.25;;;13.06;100.00
19108;BME280;9686;48.832;9.126;2023-04-07T11:07:03;97999.94;;;12.89;100.00
19108;BME280;9686;48.832;9.126;2023-04-07T11:09:28;98000.59;;;13.02;100.00
19108;BME280;9686;48.832;9.126;2023-04-07T11:11:54;97998.06;;;12.96;100.00
19108;BME280;9686;48.832;9.126;2023-04-07T11:14:30;98004.00;;;13.06;100.00
19108;BME280;9686;48.832;9.126;2023-04-07T11:16:56;98007.59;;;12.98;100.00
19108;BME280;9686;48.832;9.126;2023-04-07T11:19:22;98002.06;;;13.15;100.00
19108;BME280;9686;48.832;9.126;2023-04-07T11:21:47;98014.78;;;12.89;100.00
19108;BME280;9686;48.832;9.126;2023-04-07T11:24:35;98013.19;;;12.82;100.00
19108;BME280;9686;48.832;9.126;2023-04-07T11:27:02;98009.09;;;12.65;100.00
19108;BME280;9686;48.832;9.126;2023-04-07T11:29:30;98012.56;;;12.66;100.00
19108;BME280;9686;48.832;9.126;2023-04-07T11:32:00;98015.47;;;12.51;100.00
19108;BME280;9686;48.832;9.126;2023-04-07T11:34:30;98024.06;;;12.57;100.00
19108;BME280;9686;48.832;9.126;2023-04-07T11:36:56;98023.34;;;12.49;100.00
19108;BME280;9686;48.832;9.126;2023-04-07T11:39:26;98032.59;;;12.15;100.00
19108;BME280;9686;48.832;9.126;2023-04-07T11:41:59;98041.13;;;11.63;100.00
19108;BME280;9686;48.832;9.126;2023-04-07T11:44:24;98044.03;;;11.38;100.00
19108;BME280;9686;48.832;9.126;2023-04-07T11:47:00;98053.09;;;11.05;100.00
19108;BME280;9686;48.832;9.126;2023-04-07T11:49:27;98064.69;;;10.77;100.00
19108;BME280;9686;48.832;9.126;2023-04-07T11:52:00;98083.41;;;10.10;100.00
19108;BME280;9686;48.832;9.126;2023-04-07T11:54:26;98080.94;;;9.84;100.00
19108;BME280;9686;48.832;9.126;2023-04-07T11:56:52;98077.47;;;9.86;100.00
19108;BME280;9686;48.832;9.126;2023-04-07T11:59:23;98076.59;;;9.87;100.00
19108;BME280;9686;48.832;9.126;2023-04-07T12:01:50;98078.31;;;9.95;100.00
19108;BME280;9686;48.832;9.126;2023-04-07T12:04:16;98084.34;;;10.00;100.00
19108;BME280;9686;48.832;9.126;2023-04-07T12:06:43;98086.84;;;10.16;100.00
19108;BME280;9686;48.832;9.126;2023-04-07T12:09:25;98090.28;;;10.26;100.00
19108;BME280;9686;48.832;9.126;2023-04-07T12:11:55;98085.03;;;10.32;100.00
19108;BME280;9686;48.832;9.126;2023-04-07T12:14:21;98083.34;;;10.27;100.00
19108;BME280;9686;48.832;9.126;2023-04-07T12:16:46;98070.16;;;10.48;100.00
19108;BME280;9686;48.832;9.126;2023-04-07T12:19:12;98072.81;;;10.42;100.00
19108;BME280;9686;48.832;9.126;2023-04-07T12:21:37;98079.75;;;10.44;100.00
19108;BME280;9686;48.832;9.126;2023-04-07T12:24:02;98087.53;;;10.46;100.00
19108;BME280;9686;48.832;9.126;2023-04-07T12:26:28;98089.25;;;10.50;100.00
19108;BME280;9686;48.832;9.126;2023-04-07T12:28:53;98080.50;;;10.56;100.00
19108;BME280;9686;48.832;9.126;2023-04-07T12:31:19;98077.81;;;10.68;100.00
19108;BME280;9686;48.832;9.126;2023-04-07T12:33:44;98069.13;;;10.64;100.00
19108;BME280;9686;48.832;9.126;2023-04-07T12:36:10;98079.47;;;10.78;100.00
19108;BME280;9686;48.832;9.126;2023-04-07T12:38:35;98070.84;;;10.70;100.00
19108;BME280;9686;48.832;9.126;2023-04-07T12:41:01;98068.19;;;10.74;100.00
19108;BME280;9686;48.832;9.126;2023-04-07T12:43:30;98071.56;;;10.86;100.00
19108;BME280;9686;48.832;9.126;2023-04-07T12:45:56;98075.00;;;10.89;100.00
19108;BME280;9686;48.832;9.126;2023-04-07T12:48:21;98082.81;;;10.89;100.00
19108;BME280;9686;48.832;9.126;2023-04-07T12:50:47;98078.44;;;10.96;100.00
19108;BME280;9686;48.832;9.126;2023-04-07T12:53:13;98074.91;;;11.00;100.00
19108;BME280;9686;48.832;9.126;2023-04-07T12:55:38;98078.38;;;11.02;100.00
19108;BME280;9686;48.832;9.126;2023-04-07T12:58:04;98077.47;;;11.03;100.00
19108;BME280;9686;48.832;9.126;2023-04-07T13:00:29;98075.72;;;11.05;100.00
19108;BME280;9686;48.832;9.126;2023-04-07T13:02:55;98074.84;;;11.04;100.00
19108;BME280;9686;48.832;9.126;2023-04-07T13:05:21;98076.69;;;10.95;100.00
19108;BME280;9686;48.832;9.126;2023-04-07T13:07:46;98069.75;;;10.92;100.00
19108;BME280;9686;48.832;9.126;2023-04-07T13:10:12;98077.63;;;10.88;100.00
19108;BME280;9686;48.832;9.126;2023-04-07T13:12:37;98079.34;;;10.89;100.00
19108;BME280;9686;48.832;9.126;2023-04-07T13:15:04;98084.63;;;10.81;100.00
19108;BME280;9686;48.832;9.126;2023-04-07T13:17:30;98087.31;;;10.75;100.00
19108;BME280;9686;48.832;9.126;2023-04-07T13:19:55;98080.19;;;10.94;100.00
19108;BME280;9686;48.832;9.126;2023-04-07T13:22:21;98079.28;;;10.98;100.00
19108;BME280;9686;48.832;9.126;2023-04-07T13:24:46;98074.09;;;10.95;100.00
19108;BME280;9686;48.832;9.126;2023-04-07T13:27:11;98084.53;;;10.95;100.00
19108;BME280;9686;48.832;9.126;2023-04-07T13:29:37;98086.25;;;10.97;100.00
19108;BME280;9686;48.832;9.126;2023-04-07T13:32:06;98081.03;;;10.97;100.00
19108;BME280;9686;48.832;9.126;2023-04-07T13:34:33;98072.25;;;11.03;100.00
19108;BME280;9686;48.832;9.126;2023-04-07T13:37:00;98072.19;;;11.10;100.00
19108;BME280;9686;48.832;9.126;2023-04-07T13:39:25;98067.00;;;11.07;100.00
19108;BME280;9686;48.832;9.126;2023-04-07T13:41:50;98068.63;;;11.18;100.00
19108;BME280;9686;48.832;9.126;2023-04-07T13:44:16;98066.16;;;11.05;100.00
19108;BME280;9686;48.832;9.126;2023-04-07T13:46:41;98066.97;;;11.09;100.00
19108;BME280;9686;48.832;9.126;2023-04-07T13:49:06;98071.31;;;11.10;100.00